createdAt,value
2022-08-16T00:00:53.483Z,64
2022-08-16T00:02:52.440Z,63
2022-08-16T00:04:52.824Z,64
2022-08-16T00:06:50.090Z,64
2022-08-16T00:08:52.831Z,64
2022-08-16T00:10:53.869Z,64
2022-08-16T00:12:51.601Z,64
2022-08-16T00:14:57.077Z,66
2022-08-16T00:17:19.780Z,66
2022-08-16T00:18:50.828Z,66
2022-08-16T00:20:53.485Z,67
2022-08-16T00:22:51.973Z,67
2022-08-16T00:24:51.957Z,66
2022-08-16T00:26:51.447Z,68
2022-08-16T00:28:55.517Z,68
2022-08-16T00:30:53.543Z,67
2022-08-16T00:32:50.655Z,69
2022-08-16T00:34:54.753Z,69
2022-08-16T00:37:03.728Z,70
2022-08-16T00:38:50.589Z,71
2022-08-16T00:40:55.112Z,72
2022-08-16T00:42:57.046Z,71
2022-08-16T00:44:51.683Z,70
2022-08-16T00:47:07.005Z,70
2022-08-16T00:48:51.041Z,70
2022-08-16T00:50:56.884Z,72
2022-08-16T00:52:55.675Z,72
2022-08-16T00:54:55.682Z,73
2022-08-16T00:57:00.678Z,73
2022-08-16T00:58:51.816Z,72
2022-08-16T01:00:55.063Z,72
2022-08-16T01:02:51.966Z,73
2022-08-16T01:05:12.457Z,73
2022-08-16T01:07:03.445Z,73
2022-08-16T01:08:51.537Z,73
2022-08-16T01:10:50.349Z,74
2022-08-16T01:12:50.844Z,74
2022-08-16T01:14:53.844Z,74
2022-08-16T01:16:50.155Z,74
2022-08-16T01:18:50.761Z,75
2022-08-16T01:20:51.744Z,75
2022-08-16T01:22:57.264Z,74
2022-08-16T01:24:56.625Z,74
2022-08-16T01:26:50.947Z,74
2022-08-16T01:28:51.098Z,73
2022-08-16T01:30:51.030Z,75
2022-08-16T01:33:16.467Z,75
2022-08-16T01:34:57.514Z,75
2022-08-16T01:37:02.621Z,76
2022-08-16T01:38:59.624Z,76
2022-08-16T01:40:51.099Z,75
2022-08-16T01:42:56.418Z,75
2022-08-16T01:44:54.132Z,75
2022-08-16T01:46:50.640Z,75
2022-08-16T01:48:51.475Z,77
2022-08-16T01:51:17.546Z,77
2022-08-16T01:52:51.808Z,77
2022-08-16T01:54:53.939Z,77
2022-08-16T01:56:56.441Z,77
2022-08-16T01:58:51.518Z,78
2022-08-16T02:00:51.499Z,78
2022-08-16T02:02:54.298Z,78
2022-08-16T02:04:55.475Z,78
2022-08-16T02:06:51.719Z,78
2022-08-16T02:08:51.650Z,78
2022-08-16T02:10:50.601Z,78
2022-08-16T02:13:01.887Z,78
2022-08-16T02:14:52.437Z,78
2022-08-16T02:16:52.681Z,78
2022-08-16T02:18:51.815Z,79
2022-08-16T02:20:54.119Z,79
2022-08-16T02:22:55.465Z,79
2022-08-16T02:24:52.801Z,79
2022-08-16T02:26:50.627Z,79
2022-08-16T02:28:53.237Z,79
2022-08-16T02:30:52.799Z,79
2022-08-16T02:32:52.367Z,80
2022-08-16T02:34:56.873Z,80
2022-08-16T02:36:51.398Z,79
2022-08-16T02:38:53.208Z,79
2022-08-16T02:40:51.023Z,79
2022-08-16T02:42:52.247Z,79
2022-08-16T02:44:52.461Z,79
2022-08-16T02:46:54.385Z,79
2022-08-16T02:48:52.900Z,80
2022-08-16T02:51:12.046Z,79
2022-08-16T02:52:50.481Z,79
2022-08-16T02:54:56.622Z,80
2022-08-16T02:56:54.133Z,80
2022-08-16T02:58:50.168Z,80
2022-08-16T03:00:52.707Z,80
2022-08-16T03:02:57.098Z,80
2022-08-16T03:04:54.490Z,79
2022-08-16T03:06:57.779Z,79
2022-08-16T03:08:53.878Z,79
2022-08-16T03:10:59.676Z,80
2022-08-16T03:12:57.584Z,80
2022-08-16T03:14:50.665Z,80
2022-08-16T03:17:02.473Z,80
2022-08-16T03:18:50.400Z,80
2022-08-16T03:20:56.477Z,79
2022-08-16T03:22:50.565Z,79
2022-08-16T03:24:50.496Z,79
2022-08-16T03:26:51.914Z,80
2022-08-16T03:28:52.622Z,80
2022-08-16T03:30:50.555Z,80
2022-08-16T03:32:52.792Z,80
2022-08-16T03:34:50.648Z,80
2022-08-16T03:36:51.039Z,80
2022-08-16T03:38:50.977Z,80
2022-08-16T03:40:51.728Z,80
2022-08-16T03:43:21.924Z,80
2022-08-16T03:45:04.991Z,80
2022-08-16T03:46:50.749Z,80
2022-08-16T03:48:51.518Z,80
2022-08-16T03:51:01.167Z,80
2022-08-16T03:52:50.684Z,80
2022-08-16T03:55:00.275Z,80
2022-08-16T03:56:59.339Z,80
2022-08-16T03:58:55.151Z,80
2022-08-16T04:01:00.344Z,79
2022-08-16T04:02:53.001Z,79
2022-08-16T04:04:50.577Z,79
2022-08-16T04:06:51.656Z,80
2022-08-16T04:08:51.336Z,80
2022-08-16T04:10:52.669Z,79
2022-08-16T04:13:20.129Z,79
2022-08-16T04:14:52.145Z,79
2022-08-16T04:16:51.553Z,79
2022-08-16T04:18:50.473Z,80
2022-08-16T04:20:51.016Z,80
2022-08-16T04:22:52.101Z,80
2022-08-16T04:25:00.767Z,80
2022-08-16T04:26:50.927Z,80
2022-08-16T04:29:25.056Z,80
2022-08-16T04:30:52.403Z,80
2022-08-16T04:32:55.846Z,80
2022-08-16T04:34:51.556Z,80
2022-08-16T04:36:50.868Z,80
2022-08-16T04:38:53.066Z,80
2022-08-16T04:40:51.231Z,81
2022-08-16T04:42:51.910Z,81
2022-08-16T04:44:56.534Z,81
2022-08-16T04:47:24.327Z,81
2022-08-16T04:48:50.618Z,80
2022-08-16T04:50:51.366Z,80
2022-08-16T04:52:50.743Z,81
2022-08-16T04:54:50.952Z,81
2022-08-16T04:56:54.349Z,81
2022-08-16T04:58:51.437Z,81
2022-08-16T05:00:50.737Z,81
2022-08-16T05:03:08.321Z,81
2022-08-16T05:04:51.979Z,81
2022-08-16T05:06:50.331Z,80
2022-08-16T05:08:57.032Z,79
2022-08-16T05:10:50.353Z,79
2022-08-16T05:12:52.585Z,79
2022-08-16T05:15:03.549Z,78
2022-08-16T05:16:52.722Z,78
2022-08-16T05:18:50.729Z,78
2022-08-16T05:21:12.789Z,78
2022-08-16T05:22:56.208Z,78
2022-08-16T05:24:56.111Z,78
2022-08-16T05:26:52.795Z,78
2022-08-16T05:28:56.457Z,78
2022-08-16T05:30:51.072Z,78
2022-08-16T05:32:51.584Z,78
2022-08-16T05:34:51.152Z,78
2022-08-16T05:36:51.962Z,78
2022-08-16T05:38:53.537Z,78
2022-08-16T05:41:02.280Z,78
2022-08-16T05:42:51.684Z,78
2022-08-16T05:44:51.223Z,78
2022-08-16T05:46:52.023Z,78
2022-08-16T05:49:09.876Z,78
2022-08-16T05:50:54.219Z,77
2022-08-16T05:52:50.878Z,77
2022-08-16T05:55:02.268Z,77
2022-08-16T05:56:51.802Z,77
2022-08-16T05:58:51.560Z,76
2022-08-16T06:00:50.949Z,76
2022-08-16T06:02:50.940Z,76
2022-08-16T06:04:54.684Z,76
2022-08-16T06:06:58.131Z,76
2022-08-16T06:08:53.820Z,76
2022-08-16T06:11:13.845Z,76
2022-08-16T06:12:59.280Z,75
2022-08-16T06:14:51.887Z,75
2022-08-16T06:16:55.479Z,75
2022-08-16T06:18:51.757Z,75
2022-08-16T06:21:00.977Z,74
2022-08-16T06:23:18.419Z,74
2022-08-16T06:24:56.414Z,74
2022-08-16T06:26:58.999Z,74
2022-08-16T06:28:53.573Z,74
2022-08-16T06:30:53.660Z,74
2022-08-16T06:32:51.657Z,74
2022-08-16T06:35:03.560Z,74
2022-08-16T06:37:00.092Z,73
2022-08-16T06:38:57.361Z,73
2022-08-16T06:40:50.260Z,73
2022-08-16T06:42:58.322Z,73
2022-08-16T06:44:50.768Z,73
2022-08-16T06:46:51.693Z,73
2022-08-16T06:48:54.461Z,72
2022-08-16T06:50:50.342Z,72
2022-08-16T06:53:10.952Z,72
2022-08-16T06:54:52.521Z,71
2022-08-16T06:56:55.780Z,71
2022-08-16T06:58:50.762Z,71
2022-08-16T07:00:50.929Z,71
2022-08-16T07:02:53.516Z,71
2022-08-16T07:04:53.918Z,71
2022-08-16T07:06:51.822Z,71
2022-08-16T07:08:50.916Z,70
2022-08-16T07:10:51.320Z,69
2022-08-16T07:13:51.243Z,69
2022-08-16T07:14:50.465Z,69
2022-08-16T07:16:51.612Z,69
2022-08-16T07:19:03.293Z,68
2022-08-16T07:20:50.984Z,68
2022-08-16T07:23:00.901Z,68
2022-08-16T07:24:51.112Z,68
2022-08-16T07:26:50.369Z,68
2022-08-16T07:28:50.652Z,68
2022-08-16T07:30:50.701Z,68
2022-08-16T07:32:52.854Z,67
2022-08-16T07:34:53.188Z,67
2022-08-16T07:37:01.659Z,67
2022-08-16T07:38:51.032Z,67
2022-08-16T07:41:11.265Z,66
2022-08-16T07:42:52.375Z,66
2022-08-16T07:44:51.635Z,66
2022-08-16T07:46:57.182Z,66
2022-08-16T07:48:50.139Z,65
2022-08-16T07:51:09.430Z,65
2022-08-16T07:52:51.889Z,65
2022-08-16T07:54:54.053Z,65
2022-08-16T07:56:53.510Z,65
2022-08-16T07:58:58.795Z,65
2022-08-16T08:00:52.400Z,64
2022-08-16T08:02:55.001Z,64
2022-08-16T08:04:50.691Z,64
2022-08-16T08:06:51.806Z,64
2022-08-16T08:08:59.846Z,64
2022-08-16T08:10:52.066Z,64
2022-08-16T08:13:00.680Z,64
2022-08-16T08:14:51.119Z,64
2022-08-16T08:16:50.550Z,64
2022-08-16T08:19:03.407Z,64
2022-08-16T08:21:00.341Z,63
2022-08-16T08:22:51.168Z,63
2022-08-16T08:25:03.985Z,63
2022-08-16T08:26:51.197Z,62
2022-08-16T08:28:50.646Z,62
2022-08-16T08:31:03.569Z,62
2022-08-16T08:33:01.795Z,62
2022-08-16T08:34:51.371Z,62
2022-08-16T08:36:55.130Z,62
2022-08-16T08:38:51.016Z,62
2022-08-16T08:40:50.163Z,62
2022-08-16T08:43:18.157Z,62
2022-08-16T08:44:50.882Z,61
2022-08-16T08:47:11.681Z,61
2022-08-16T08:49:02.910Z,61
2022-08-16T08:50:51.389Z,61
2022-08-16T08:52:54.043Z,61
2022-08-16T08:54:52.056Z,61
2022-08-16T08:56:52.810Z,61
2022-08-16T08:59:20.705Z,60
2022-08-16T09:00:52.419Z,61
2022-08-16T09:02:54.044Z,60
2022-08-16T09:04:53.024Z,59
2022-08-16T09:06:50.431Z,59
2022-08-16T09:08:50.412Z,60
2022-08-16T09:11:07.682Z,60
2022-08-16T09:12:52.951Z,60
2022-08-16T09:14:52.135Z,59
2022-08-16T09:17:45.205Z,59
2022-08-16T09:21:03.658Z,57
2022-08-16T09:22:55.091Z,57
2022-08-16T09:25:13.151Z,57
2022-08-16T09:26:53.144Z,57
2022-08-16T09:29:33.410Z,57
2022-08-16T09:30:51.599Z,56
2022-08-16T09:32:53.821Z,55
2022-08-16T09:34:58.676Z,55
2022-08-16T09:37:00.438Z,55
2022-08-16T09:39:00.408Z,54
2022-08-16T09:40:53.859Z,55
2022-08-16T09:43:00.520Z,53
2022-08-16T09:45:22.339Z,53
2022-08-16T09:46:59.650Z,54
2022-08-16T09:48:56.838Z,53
2022-08-16T09:50:56.450Z,53
2022-08-16T09:52:51.589Z,54
2022-08-16T09:54:51.214Z,53
2022-08-16T09:56:54.735Z,53
2022-08-16T09:59:08.850Z,54
2022-08-16T10:00:50.465Z,52
2022-08-16T10:02:52.406Z,52
2022-08-16T10:04:56.171Z,52
2022-08-16T10:06:53.928Z,53
2022-08-16T10:09:11.653Z,53
2022-08-16T10:10:50.882Z,52
2022-08-16T10:12:57.712Z,52
2022-08-16T10:14:50.555Z,52
2022-08-16T10:17:02.943Z,52
2022-08-16T10:19:08.736Z,52
2022-08-16T10:20:52.530Z,52
2022-08-16T10:23:17.525Z,52
2022-08-16T10:25:00.775Z,52
2022-08-16T10:27:29.807Z,51
2022-08-16T10:28:51.008Z,52
2022-08-16T10:31:00.111Z,52
2022-08-16T10:32:51.473Z,52
2022-08-16T10:34:54.106Z,52
2022-08-16T10:36:55.209Z,51
2022-08-16T10:38:52.615Z,51
2022-08-16T10:40:50.687Z,52
2022-08-16T10:42:51.028Z,52
2022-08-16T10:44:55.786Z,51
2022-08-16T10:46:50.973Z,52
2022-08-16T10:48:52.152Z,52
2022-08-16T10:50:50.367Z,52
2022-08-16T10:52:59.965Z,51
2022-08-16T10:55:40.477Z,51
2022-08-16T10:56:57.523Z,51
2022-08-16T10:58:51.780Z,51
2022-08-16T11:00:58.774Z,50
2022-08-16T11:03:02.406Z,50
2022-08-16T11:05:11.547Z,50
2022-08-16T11:07:51.794Z,50
2022-08-16T11:09:28.823Z,50
2022-08-16T11:11:20.024Z,51
2022-08-16T11:12:53.406Z,51
2022-08-16T11:15:17.957Z,50
2022-08-16T11:17:11.620Z,50
2022-08-16T11:19:15.832Z,50
2022-08-16T11:20:51.197Z,48
2022-08-16T11:22:51.785Z,48
2022-08-16T11:27:32.849Z,49
2022-08-16T11:29:15.480Z,47
2022-08-16T11:31:00.896Z,47
2022-08-16T11:32:51.032Z,47
2022-08-16T11:35:16.656Z,46
2022-08-16T11:37:01.834Z,47
2022-08-16T11:39:00.596Z,47
2022-08-16T11:40:53.916Z,47
2022-08-16T11:42:51.881Z,46
2022-08-16T11:44:57.567Z,46
2022-08-16T11:46:55.354Z,46
2022-08-16T11:48:50.294Z,46
2022-08-16T11:50:50.331Z,46
2022-08-16T11:52:50.908Z,45
2022-08-16T11:55:00.821Z,45
2022-08-16T11:56:58.095Z,45
2022-08-16T11:58:57.556Z,44
2022-08-16T12:00:54.306Z,44
2022-08-16T12:02:50.675Z,45
2022-08-16T12:04:53.796Z,45
2022-08-16T12:06:55.075Z,45
2022-08-16T12:08:50.087Z,45
2022-08-16T12:10:51.205Z,45
2022-08-16T12:12:52.556Z,45
2022-08-16T12:15:01.419Z,43
2022-08-16T12:16:57.459Z,43
2022-08-16T12:18:50.666Z,44
2022-08-16T12:21:04.055Z,44
2022-08-16T12:22:52.973Z,43
2022-08-16T12:24:53.183Z,44
2022-08-16T12:26:50.425Z,44
2022-08-16T12:28:57.055Z,44
2022-08-16T12:30:50.164Z,44
2022-08-16T12:32:58.889Z,44
2022-08-16T12:34:54.023Z,43
2022-08-16T12:36:50.930Z,43
2022-08-16T12:38:53.747Z,43
2022-08-16T12:40:57.709Z,42
2022-08-16T12:42:59.378Z,42
2022-08-16T12:44:50.987Z,42
2022-08-16T12:46:51.676Z,42
2022-08-16T12:48:55.100Z,42
2022-08-16T12:50:51.392Z,42
2022-08-16T12:52:54.763Z,42
2022-08-16T12:54:56.186Z,42
2022-08-16T12:56:51.192Z,42
2022-08-16T12:58:52.554Z,42
2022-08-16T13:00:50.728Z,42
2022-08-16T13:02:51.955Z,43
2022-08-16T13:04:53.546Z,43
2022-08-16T13:06:53.898Z,43
2022-08-16T13:08:52.025Z,43
2022-08-16T13:10:53.190Z,43
2022-08-16T13:12:50.117Z,43
2022-08-16T13:14:50.806Z,42
2022-08-16T13:16:51.178Z,42
2022-08-16T13:18:55.025Z,41
2022-08-16T13:20:51.902Z,42
2022-08-16T13:22:53.296Z,42
2022-08-16T13:24:51.776Z,42
2022-08-16T13:26:54.509Z,42
2022-08-16T13:28:50.445Z,42
2022-08-16T13:30:50.402Z,42
2022-08-16T13:32:53.253Z,42
2022-08-16T13:34:50.875Z,42
2022-08-16T13:36:50.773Z,42
2022-08-16T13:38:52.053Z,42
2022-08-16T13:40:51.024Z,42
2022-08-16T13:42:50.976Z,42
2022-08-16T13:44:59.071Z,42
2022-08-16T13:46:54.441Z,42
2022-08-16T13:48:53.003Z,42
2022-08-16T13:50:52.750Z,42
2022-08-16T13:52:50.928Z,42
2022-08-16T13:54:51.823Z,41
2022-08-16T13:56:51.017Z,42
2022-08-16T13:58:57.597Z,42
2022-08-16T14:00:54.675Z,42
2022-08-16T14:02:59.729Z,41
2022-08-16T14:05:06.224Z,42
2022-08-16T14:06:50.894Z,40
2022-08-16T14:09:07.443Z,40
2022-08-16T14:10:51.655Z,41
2022-08-16T14:12:54.333Z,41
2022-08-16T14:14:57.739Z,41
2022-08-16T14:16:50.361Z,40
2022-08-16T14:18:53.925Z,40
2022-08-16T14:20:51.823Z,40
2022-08-16T14:22:55.724Z,39
2022-08-16T14:24:50.664Z,39
2022-08-16T14:26:53.140Z,40
2022-08-16T14:28:51.214Z,39
2022-08-16T14:30:51.909Z,39
2022-08-16T14:32:53.261Z,38
2022-08-16T14:34:57.096Z,38
2022-08-16T14:36:53.550Z,39
2022-08-16T14:38:50.834Z,39
2022-08-16T14:40:56.250Z,39
2022-08-16T14:42:55.677Z,38
2022-08-16T14:44:50.799Z,39
2022-08-16T14:46:53.902Z,39
2022-08-16T14:48:53.827Z,39
2022-08-16T14:50:50.542Z,39
2022-08-16T14:53:00.877Z,39
2022-08-16T14:54:51.095Z,39
2022-08-16T14:56:57.003Z,39
2022-08-16T14:58:51.736Z,39
2022-08-16T15:00:52.867Z,39
2022-08-16T15:02:54.703Z,39
2022-08-16T15:04:50.288Z,39
2022-08-16T15:06:50.778Z,39
2022-08-16T15:08:51.401Z,39
2022-08-16T15:10:51.348Z,39
2022-08-16T15:12:51.544Z,37
2022-08-16T15:14:51.973Z,37
2022-08-16T15:16:51.532Z,38
2022-08-16T15:18:50.589Z,38
2022-08-16T15:20:51.227Z,39
2022-08-16T15:22:51.903Z,38
2022-08-16T15:24:52.212Z,38
2022-08-16T15:26:50.425Z,38
2022-08-16T15:28:51.517Z,38
2022-08-16T15:31:06.621Z,37
2022-08-16T15:32:50.995Z,39
2022-08-16T15:34:50.197Z,39
2022-08-16T15:36:52.488Z,39
2022-08-16T15:39:35.744Z,39
2022-08-16T15:41:00.022Z,39
2022-08-16T15:42:54.641Z,39
2022-08-16T15:44:58.929Z,39
2022-08-16T15:47:05.150Z,39
2022-08-16T15:48:52.777Z,39
2022-08-16T15:50:53.773Z,39
2022-08-16T15:52:50.995Z,39
2022-08-16T15:54:57.530Z,39
2022-08-16T15:56:50.897Z,39
2022-08-16T15:58:56.465Z,39
2022-08-16T16:00:51.965Z,39
2022-08-16T16:02:52.257Z,39
2022-08-16T16:04:54.285Z,39
2022-08-16T16:06:59.451Z,39
2022-08-16T16:08:51.236Z,39
2022-08-16T16:10:55.289Z,39
2022-08-16T16:12:55.401Z,39
2022-08-16T16:14:51.113Z,40
2022-08-16T16:16:54.573Z,40
2022-08-16T16:18:53.443Z,40
2022-08-16T16:20:52.510Z,40
2022-08-16T16:22:50.711Z,40
2022-08-16T16:24:50.640Z,40
2022-08-16T16:26:50.182Z,40
2022-08-16T16:29:16.074Z,40
2022-08-16T16:30:57.409Z,40
2022-08-16T16:32:50.589Z,40
2022-08-16T16:34:50.824Z,40
2022-08-16T16:36:54.824Z,39
2022-08-16T16:38:50.833Z,39
2022-08-16T16:40:55.086Z,39
2022-08-16T16:42:51.024Z,39
2022-08-16T16:45:03.233Z,40
2022-08-16T16:46:58.484Z,39
2022-08-16T16:48:52.275Z,39
2022-08-16T16:50:51.061Z,39
2022-08-16T16:52:53.909Z,39
2022-08-16T16:54:56.588Z,39
2022-08-16T16:56:51.288Z,39
2022-08-16T16:58:54.735Z,39
2022-08-16T17:01:00.123Z,39
2022-08-16T17:02:54.654Z,39
2022-08-16T17:04:50.348Z,39
2022-08-16T17:06:57.850Z,39
2022-08-16T17:08:52.428Z,39
2022-08-16T17:10:51.048Z,39
2022-08-16T17:12:57.520Z,39
2022-08-16T17:14:50.941Z,39
2022-08-16T17:16:51.569Z,39
2022-08-16T17:19:24.178Z,39
2022-08-16T17:20:53.665Z,39
2022-08-16T17:22:55.113Z,40
2022-08-16T17:24:53.259Z,40
2022-08-16T17:26:57.996Z,40
2022-08-16T17:29:12.157Z,40
2022-08-16T17:30:51.602Z,40
2022-08-16T17:32:55.318Z,40
2022-08-16T17:34:52.065Z,40
2022-08-16T17:36:55.085Z,39
2022-08-16T17:38:50.131Z,39
2022-08-16T17:41:01.006Z,39
2022-08-16T17:42:51.003Z,39
2022-08-16T17:44:50.926Z,39
2022-08-16T17:46:53.601Z,39
2022-08-16T17:48:50.531Z,39
2022-08-16T17:50:55.475Z,39
2022-08-16T17:52:51.955Z,39
2022-08-16T17:54:50.926Z,39
2022-08-16T17:56:50.386Z,39
2022-08-16T17:58:50.443Z,39
2022-08-16T18:00:50.545Z,39
2022-08-16T18:02:50.520Z,39
2022-08-16T18:04:50.865Z,39
2022-08-16T18:06:50.970Z,39
2022-08-16T18:09:04.399Z,39
2022-08-16T18:10:52.501Z,40
2022-08-16T18:12:56.800Z,40
2022-08-16T18:15:00.662Z,40
2022-08-16T18:16:50.908Z,40
2022-08-16T18:18:50.908Z,41
2022-08-16T18:20:50.783Z,41
2022-08-16T18:22:51.231Z,41
2022-08-16T18:24:50.366Z,41
2022-08-16T18:26:50.929Z,41
2022-08-16T18:28:50.886Z,42
2022-08-16T18:31:05.736Z,42
2022-08-16T18:32:51.759Z,42
2022-08-16T18:34:50.207Z,42
2022-08-16T18:36:50.471Z,42
2022-08-16T18:38:50.427Z,42
2022-08-16T18:40:50.327Z,42
2022-08-16T18:42:51.197Z,42
2022-08-16T18:44:50.176Z,42
2022-08-16T18:46:51.677Z,42
2022-08-16T18:48:50.574Z,43
2022-08-16T18:51:24.419Z,43
2022-08-16T18:52:51.248Z,43
2022-08-16T18:55:15.340Z,43
2022-08-16T18:56:58.786Z,43
2022-08-16T18:58:50.729Z,43
2022-08-16T19:00:58.095Z,43
2022-08-16T19:02:59.929Z,43
2022-08-16T19:04:59.087Z,43
2022-08-16T19:06:50.294Z,44
2022-08-16T19:08:50.199Z,45
2022-08-16T19:10:50.458Z,45
2022-08-16T19:12:50.863Z,45
2022-08-16T19:14:51.447Z,47
2022-08-16T19:16:50.805Z,46
2022-08-16T19:18:50.731Z,46
2022-08-16T19:20:50.927Z,45
2022-08-16T19:23:11.347Z,45
2022-08-16T19:24:50.508Z,46
2022-08-16T19:26:50.864Z,46
2022-08-16T19:29:09.735Z,46
2022-08-16T19:30:50.202Z,46
2022-08-16T19:32:51.083Z,46
2022-08-16T19:34:50.580Z,46
2022-08-16T19:36:51.034Z,48
2022-08-16T19:38:54.432Z,48
2022-08-16T19:40:50.774Z,48
2022-08-16T19:42:50.836Z,49
2022-08-16T19:44:50.896Z,50
2022-08-16T19:46:50.250Z,50
2022-08-16T19:48:50.294Z,50
2022-08-16T19:50:50.418Z,50
2022-08-16T19:52:50.214Z,50
2022-08-16T19:54:50.522Z,51
2022-08-16T19:56:50.863Z,51
2022-08-16T19:59:39.793Z,52
2022-08-16T20:00:56.818Z,52
2022-08-16T20:02:51.212Z,52
2022-08-16T20:04:50.786Z,52
2022-08-16T20:06:53.200Z,52
2022-08-16T20:08:50.257Z,52
2022-08-16T20:10:51.032Z,52
2022-08-16T20:13:03.346Z,53
2022-08-16T20:14:50.617Z,53
2022-08-16T20:16:50.861Z,53
2022-08-16T20:18:50.868Z,53
2022-08-16T20:20:50.907Z,52
2022-08-16T20:22:55.375Z,53
2022-08-16T20:24:56.048Z,53
2022-08-16T20:26:50.300Z,55
2022-08-16T20:28:55.805Z,55
2022-08-16T20:30:50.654Z,55
2022-08-16T20:32:52.045Z,55
2022-08-16T20:34:50.650Z,55
2022-08-16T20:36:50.830Z,56
2022-08-16T20:38:50.261Z,56
2022-08-16T20:40:50.377Z,55
2022-08-16T20:42:59.445Z,56
2022-08-16T20:44:50.265Z,56
2022-08-16T20:46:50.849Z,56
2022-08-16T20:48:50.878Z,56
2022-08-16T20:50:50.911Z,57
2022-08-16T20:52:52.082Z,57
2022-08-16T20:54:50.055Z,57
2022-08-16T20:56:50.446Z,57
2022-08-16T20:58:50.529Z,57
2022-08-16T21:00:50.826Z,57
2022-08-16T21:02:51.221Z,57
2022-08-16T21:04:50.818Z,57
2022-08-16T21:06:55.661Z,58
2022-08-16T21:08:54.848Z,58
2022-08-16T21:10:50.791Z,58
2022-08-16T21:12:52.026Z,58
2022-08-16T21:14:50.932Z,58
2022-08-16T21:16:50.224Z,57
2022-08-16T21:18:50.163Z,57
2022-08-16T21:20:50.413Z,57
2022-08-16T21:22:56.518Z,57
2022-08-16T21:24:54.714Z,57
2022-08-16T21:26:56.846Z,57
2022-08-16T21:28:52.010Z,57
2022-08-16T21:30:50.884Z,57
2022-08-16T21:32:51.990Z,57
2022-08-16T21:34:50.466Z,57
2022-08-16T21:36:50.805Z,56
2022-08-16T21:38:50.804Z,56
2022-08-16T21:40:52.336Z,57
2022-08-16T21:42:51.202Z,57
2022-08-16T21:44:50.149Z,57
2022-08-16T21:46:50.285Z,58
2022-08-16T21:48:50.099Z,58
2022-08-16T21:50:51.014Z,58
2022-08-16T21:52:51.381Z,58
2022-08-16T21:54:57.084Z,58
2022-08-16T21:56:50.534Z,58
2022-08-16T21:58:54.262Z,58
2022-08-16T22:00:50.534Z,58
2022-08-16T22:02:52.853Z,59
2022-08-16T22:04:50.432Z,59
2022-08-16T22:06:50.861Z,58
2022-08-16T22:08:51.698Z,59
2022-08-16T22:11:10.009Z,59
2022-08-16T22:12:52.089Z,58
2022-08-16T22:14:50.394Z,58
2022-08-16T22:16:50.518Z,60
2022-08-16T22:18:53.373Z,62
2022-08-16T22:20:50.124Z,62
2022-08-16T22:22:51.265Z,62
2022-08-16T22:24:50.307Z,62
2022-08-16T22:26:50.525Z,62
2022-08-16T22:28:50.355Z,63
2022-08-16T22:30:50.395Z,64
2022-08-16T22:32:51.311Z,64
2022-08-16T22:34:50.795Z,64
2022-08-16T22:36:50.665Z,64
2022-08-16T22:38:59.909Z,63
2022-08-16T22:40:50.875Z,63
2022-08-16T22:42:52.001Z,62
2022-08-16T22:44:50.151Z,62
2022-08-16T22:46:50.254Z,62
2022-08-16T22:48:50.977Z,62
2022-08-16T22:50:51.039Z,62
2022-08-16T22:52:58.152Z,62
2022-08-16T22:54:50.217Z,62
2022-08-16T22:56:50.500Z,62
2022-08-16T22:58:50.503Z,62
2022-08-16T23:00:50.472Z,61
2022-08-16T23:02:51.367Z,61
2022-08-16T23:04:51.013Z,61
2022-08-16T23:06:50.410Z,61
2022-08-16T23:08:50.486Z,61
2022-08-16T23:10:50.411Z,61
2022-08-16T23:12:51.491Z,61
2022-08-16T23:14:54.257Z,61
2022-08-16T23:16:50.569Z,61
2022-08-16T23:18:50.382Z,61
2022-08-16T23:20:50.665Z,61
2022-08-16T23:23:22.342Z,61
2022-08-16T23:24:57.534Z,61
2022-08-16T23:26:50.760Z,61
2022-08-16T23:28:50.096Z,61
2022-08-16T23:30:50.242Z,62
2022-08-16T23:32:51.237Z,63
2022-08-16T23:34:54.782Z,62
2022-08-16T23:36:50.083Z,62
2022-08-16T23:38:51.003Z,62
2022-08-16T23:40:50.910Z,62
2022-08-16T23:43:00.245Z,62
2022-08-16T23:45:00.072Z,62
2022-08-16T23:46:50.349Z,62
2022-08-16T23:49:45.531Z,62
2022-08-16T23:50:50.349Z,62
2022-08-16T23:52:56.746Z,63
2022-08-16T23:54:50.082Z,63
2022-08-16T23:56:50.418Z,63
2022-08-16T23:59:06.076Z,63
